Vremea acum in Băile Herculane - Romania

Vrei sa afli care e starea vremii acum in Caras-Severin - Romania? Dorim sa iti furnizam starea vremii pentru Caras-Severin - Romania. Starea vremii Caras-Severin - Romania pentru astazi.

Vremea acum in Băile Herculane

Temperatura: 5.2 °C

Este: Senin
Se simte ca: 3.7 °C
Innorat: 6 %
Precipitatii: 0 %
Presiune atmosferica: 1019 hPa
Umiditate: 75%
Vizibilitate: 10 km
Vantul bate din WNW cu 6.8 km/h

Evolutia vremii in Băile Herculane pe ore

Ora: 06:00
Senin
Temperatura: 4.4°C
Sansa de precipitatii: 0%
Ora Descriere Temp Se simte Precipitatii Umiditate Vant
00:00Senin5.5°4.8°0%71%WNW 4.7 KM/H
01:00Senin5.1°4.1°0%73%NW 5.4 KM/H
02:00Senin4.9°3.6°0%75%WNW 6.1 KM/H
03:00Senin4.6°3.8°0%76%NW 4.7 KM/H
04:00Senin4.4°4.2°0%76%NW 3.2 KM/H
05:00Senin4.5°2.4°0%75%NW 8.3 KM/H
06:00Senin4.4°2.7°0%75%NW 7.2 KM/H
07:00Senin5.2°3.7°0%75%WNW 6.8 KM/H
08:00Senin8.9°8.6°0%68%W 4.7 KM/H
09:00Senin12.6°12.7°0%59%W 5 KM/H
10:00Senin15.4°15.4°0%53%WSW 5.4 KM/H
11:00Senin17.8°17.8°0%49%SW 6.8 KM/H
12:00Senin19.7°19.7°0%45%SW 7.9 KM/H
13:00Senin21.2°21.2°0%41%SW 9 KM/H
14:00Senin22.4°24°0%38%SW 10.4 KM/H
15:00Senin23.1°24.2°0%36%SW 12.6 KM/H
16:0023.2°24.2°0%36%SW 14.4 KM/H
17:0022.4°24.2°0%41%WSW 15.5 KM/H
18:00Senin21.9°21.9°0%47%W 15.8 KM/H
19:00Senin19.6°19.6°0%53%W 15.1 KM/H
20:00Senin15.6°15.7°0%63%W 11.2 KM/H
21:00Senin13.5°12.9°0%66%W 9.7 KM/H
22:00Senin12.4°11.8°0%71%WNW 7.9 KM/H
23:00Senin11.6°11.1°0%75%NW 6.8 KM/H




tutorials